createdAt,value
2018-11-26T00:00:57.222Z,982.44
2018-11-26T00:01:57.370Z,982.47
2018-11-26T00:02:57.517Z,982.47
2018-11-26T00:03:57.663Z,982.49
2018-11-26T00:04:57.809Z,982.50
2018-11-26T00:05:57.957Z,982.48
2018-11-26T00:06:58.103Z,982.48
2018-11-26T00:07:58.255Z,982.45
2018-11-26T00:08:58.399Z,982.46
2018-11-26T00:09:58.546Z,982.46
2018-11-26T00:10:58.694Z,982.45
2018-11-26T00:11:58.838Z,982.45
2018-11-26T00:12:58.987Z,982.38
2018-11-26T00:13:59.135Z,982.39
2018-11-26T00:14:59.281Z,982.40
2018-11-26T00:15:59.428Z,982.40
2018-11-26T00:16:59.575Z,982.38
2018-11-26T00:17:59.721Z,982.39
2018-11-26T00:18:59.868Z,982.38
2018-11-26T00:20:00.055Z,982.41
2018-11-26T00:21:00.155Z,982.40
2018-11-26T00:22:00.299Z,982.40
2018-11-26T00:23:00.448Z,982.40
2018-11-26T00:24:00.589Z,982.40
2018-11-26T00:25:00.738Z,982.39
2018-11-26T00:26:00.883Z,982.43
2018-11-26T00:27:01.030Z,982.41
2018-11-26T00:28:01.176Z,982.39
2018-11-26T00:29:01.322Z,982.41
2018-11-26T00:30:01.466Z,982.40
2018-11-26T00:31:01.615Z,982.39
2018-11-26T00:32:01.761Z,982.39
2018-11-26T00:33:01.907Z,982.40
2018-11-26T00:34:02.057Z,982.40
2018-11-26T00:35:02.202Z,982.33
2018-11-26T00:36:02.346Z,982.34
2018-11-26T00:37:02.494Z,982.33
2018-11-26T00:38:02.640Z,982.34
2018-11-26T00:39:02.785Z,982.34
2018-11-26T00:40:02.932Z,982.35
2018-11-26T00:41:03.079Z,982.35
2018-11-26T00:42:03.225Z,982.33
2018-11-26T00:43:03.373Z,982.32
2018-11-26T00:44:03.519Z,982.35
2018-11-26T00:45:03.670Z,982.35
2018-11-26T00:46:03.813Z,982.37
2018-11-26T00:47:03.960Z,982.35
2018-11-26T00:48:04.105Z,982.32
2018-11-26T00:49:04.253Z,982.31
2018-11-26T00:50:04.400Z,982.28
2018-11-26T00:51:04.554Z,982.28
2018-11-26T00:52:04.694Z,982.27
2018-11-26T00:53:04.841Z,982.30
2018-11-26T00:54:04.988Z,982.34
2018-11-26T00:55:05.137Z,982.30
2018-11-26T00:56:05.280Z,982.29
2018-11-26T00:57:05.435Z,982.28
2018-11-26T00:58:05.575Z,982.29
2018-11-26T00:59:05.729Z,982.28
2018-11-26T01:00:05.870Z,982.24
2018-11-26T01:01:06.018Z,982.26
2018-11-26T01:02:06.163Z,982.31
2018-11-26T01:03:06.310Z,982.29
2018-11-26T01:04:06.456Z,982.30
2018-11-26T01:05:06.599Z,982.30
2018-11-26T01:06:06.748Z,982.31
2018-11-26T01:07:06.897Z,982.28
2018-11-26T01:08:07.041Z,982.29
2018-11-26T01:09:07.184Z,982.30
2018-11-26T01:10:07.334Z,982.30
2018-11-26T01:11:07.479Z,982.28
2018-11-26T01:12:07.627Z,982.27
2018-11-26T01:13:07.774Z,982.25
2018-11-26T01:14:07.918Z,982.30
2018-11-26T01:15:08.067Z,982.25
2018-11-26T01:16:08.216Z,982.28
2018-11-26T01:17:08.356Z,982.27
2018-11-26T01:18:08.505Z,982.29
2018-11-26T01:19:08.653Z,982.23
2018-11-26T01:20:08.797Z,982.13
2018-11-26T01:21:08.944Z,982.19
2018-11-26T01:22:09.091Z,982.17
2018-11-26T01:23:09.236Z,982.14
2018-11-26T01:24:09.382Z,982.19
2018-11-26T01:25:09.529Z,982.17
2018-11-26T01:26:09.676Z,982.20
2018-11-26T01:27:09.824Z,982.19
2018-11-26T01:28:09.971Z,982.16
2018-11-26T01:29:10.118Z,982.15
2018-11-26T01:30:10.262Z,982.18
2018-11-26T01:31:10.410Z,982.14
2018-11-26T01:32:10.557Z,982.15
2018-11-26T01:33:10.715Z,982.09
2018-11-26T01:34:10.858Z,982.09
2018-11-26T01:35:11.003Z,982.07
2018-11-26T01:36:11.149Z,982.09
2018-11-26T01:37:11.296Z,982.05
2018-11-26T01:38:11.443Z,982.05
2018-11-26T01:39:11.592Z,982.11
2018-11-26T01:40:11.736Z,982.11
2018-11-26T01:41:11.882Z,982.10
2018-11-26T01:42:12.028Z,982.13
2018-11-26T01:43:12.173Z,982.12
2018-11-26T01:44:12.320Z,982.12
2018-11-26T01:45:12.469Z,982.11
2018-11-26T01:46:12.618Z,982.13
2018-11-26T01:47:12.761Z,982.07
2018-11-26T01:48:12.905Z,982.15
2018-11-26T01:49:13.050Z,982.09
2018-11-26T01:50:13.197Z,982.15
2018-11-26T01:51:13.347Z,982.14
2018-11-26T01:52:13.489Z,982.16
2018-11-26T01:53:13.635Z,982.15
2018-11-26T01:54:13.782Z,982.12
2018-11-26T01:55:13.928Z,982.14
2018-11-26T01:56:14.074Z,982.11
2018-11-26T01:57:14.221Z,982.12
2018-11-26T01:58:14.369Z,982.13
2018-11-26T01:59:14.519Z,982.10
2018-11-26T02:00:14.664Z,982.11
2018-11-26T02:01:14.813Z,982.11
2018-11-26T02:02:14.960Z,982.12
2018-11-26T02:03:15.100Z,982.09
2018-11-26T02:04:15.248Z,982.13
2018-11-26T02:05:15.396Z,982.11
2018-11-26T02:06:15.542Z,982.08
2018-11-26T02:07:15.690Z,982.06
2018-11-26T02:08:15.837Z,982.03
2018-11-26T02:09:15.983Z,982.08
2018-11-26T02:10:16.128Z,982.06
2018-11-26T02:11:16.275Z,982.07
2018-11-26T02:12:16.422Z,982.08
2018-11-26T02:13:16.569Z,982.12
2018-11-26T02:14:16.715Z,982.11
2018-11-26T02:15:16.861Z,982.12
2018-11-26T02:16:17.009Z,982.12
2018-11-26T02:17:17.155Z,982.10
2018-11-26T02:18:17.301Z,982.12
2018-11-26T02:19:17.448Z,982.09
2018-11-26T02:20:17.596Z,982.14
2018-11-26T02:21:17.746Z,982.16
2018-11-26T02:22:17.889Z,982.16
2018-11-26T02:23:18.037Z,982.16
2018-11-26T02:24:18.183Z,982.12
2018-11-26T02:25:18.378Z,982.14
2018-11-26T02:26:18.479Z,982.11
2018-11-26T02:27:18.626Z,982.11
2018-11-26T02:28:18.769Z,982.11
2018-11-26T02:29:18.919Z,982.10
2018-11-26T02:30:19.079Z,982.08
2018-11-26T02:31:19.211Z,982.08
2018-11-26T02:32:19.359Z,982.08
2018-11-26T02:33:19.507Z,982.06
2018-11-26T02:34:19.657Z,982.06
2018-11-26T02:35:19.802Z,982.09
2018-11-26T02:36:19.954Z,982.09
2018-11-26T02:37:20.096Z,982.10
2018-11-26T02:38:20.242Z,982.05
2018-11-26T02:39:20.389Z,982.05
2018-11-26T02:40:20.537Z,982.04
2018-11-26T02:41:20.684Z,982.00
2018-11-26T02:42:20.828Z,981.99
2018-11-26T02:43:20.977Z,982.00
2018-11-26T02:44:21.127Z,981.98
2018-11-26T02:45:21.275Z,982.01
2018-11-26T02:46:21.417Z,981.99
2018-11-26T02:47:21.563Z,981.98
2018-11-26T02:48:21.712Z,981.96
2018-11-26T02:49:21.858Z,981.95
2018-11-26T02:50:22.009Z,981.94
2018-11-26T02:51:22.152Z,981.93
2018-11-26T02:52:22.298Z,981.94
2018-11-26T02:53:22.444Z,981.92
2018-11-26T02:54:22.590Z,981.95
2018-11-26T02:55:22.735Z,981.89
2018-11-26T02:56:22.882Z,981.91
2018-11-26T02:57:23.031Z,981.91
2018-11-26T02:58:23.171Z,981.89
2018-11-26T02:59:23.318Z,981.88
2018-11-26T03:00:23.465Z,981.92
2018-11-26T03:01:23.611Z,981.89
2018-11-26T03:02:23.756Z,981.86
2018-11-26T03:03:23.906Z,981.89
2018-11-26T03:04:24.052Z,981.88
2018-11-26T03:05:24.199Z,981.89
2018-11-26T03:06:24.350Z,981.91
2018-11-26T03:07:24.496Z,981.90
2018-11-26T03:08:24.643Z,981.91
2018-11-26T03:09:24.792Z,981.88
2018-11-26T03:10:24.938Z,981.87
2018-11-26T03:11:25.090Z,981.90
2018-11-26T03:12:25.229Z,981.90
2018-11-26T03:13:25.378Z,981.86
2018-11-26T03:14:25.521Z,981.86
2018-11-26T03:15:25.666Z,981.90
2018-11-26T03:16:25.814Z,981.90
2018-11-26T03:17:25.959Z,981.94
2018-11-26T03:18:26.106Z,981.94
2018-11-26T03:19:26.253Z,981.97
2018-11-26T03:20:26.399Z,981.96
2018-11-26T03:21:26.547Z,981.97
2018-11-26T03:22:26.695Z,982.00
2018-11-26T03:23:26.843Z,981.99
2018-11-26T03:24:26.993Z,982.01
2018-11-26T03:25:27.137Z,981.99
2018-11-26T03:26:27.284Z,982.01
2018-11-26T03:27:27.431Z,981.98
2018-11-26T03:28:27.585Z,981.95
2018-11-26T03:29:27.727Z,981.97
2018-11-26T03:30:27.893Z,981.92
2018-11-26T03:31:28.023Z,981.95
2018-11-26T03:32:28.173Z,981.98
2018-11-26T03:33:28.316Z,981.98
2018-11-26T03:34:28.462Z,981.98
2018-11-26T03:35:28.610Z,981.98
2018-11-26T03:36:28.763Z,981.95
2018-11-26T03:37:28.906Z,981.97
2018-11-26T03:38:29.051Z,981.96
2018-11-26T03:39:29.199Z,981.98
2018-11-26T03:40:29.352Z,981.99
2018-11-26T03:41:29.493Z,982.00
2018-11-26T03:42:29.647Z,981.98
2018-11-26T03:43:29.788Z,981.96
2018-11-26T03:44:29.932Z,982.06
2018-11-26T03:45:30.077Z,982.04
2018-11-26T03:46:30.240Z,982.02
2018-11-26T03:47:30.388Z,982.04
2018-11-26T03:48:30.537Z,982.08
2018-11-26T03:49:30.682Z,982.04
2018-11-26T03:50:30.828Z,982.08
2018-11-26T03:51:30.977Z,982.16
2018-11-26T03:52:31.123Z,982.14
2018-11-26T03:53:31.272Z,982.14
2018-11-26T03:54:31.454Z,982.19
2018-11-26T03:55:31.567Z,982.19
2018-11-26T03:56:31.725Z,982.20
2018-11-26T03:57:31.861Z,982.20
2018-11-26T03:58:32.009Z,982.16
2018-11-26T03:59:32.167Z,982.14
2018-11-26T04:00:32.301Z,982.11
2018-11-26T04:01:32.449Z,982.15
2018-11-26T04:02:32.598Z,982.10
2018-11-26T04:03:32.742Z,982.13
2018-11-26T04:04:32.890Z,982.14
2018-11-26T04:05:33.037Z,982.14
2018-11-26T04:06:33.184Z,982.12
2018-11-26T04:07:33.333Z,982.16
2018-11-26T04:08:33.485Z,982.15
2018-11-26T04:09:33.629Z,982.17
2018-11-26T04:10:33.774Z,982.18
2018-11-26T04:11:33.926Z,982.17
2018-11-26T04:12:34.073Z,982.18
2018-11-26T04:13:34.220Z,982.17
2018-11-26T04:14:34.367Z,982.15
2018-11-26T04:15:34.512Z,982.19
2018-11-26T04:16:34.660Z,982.22
2018-11-26T04:17:34.807Z,982.19
2018-11-26T04:18:34.955Z,982.21
2018-11-26T04:19:35.101Z,982.22
2018-11-26T04:20:35.251Z,982.19
2018-11-26T04:21:35.397Z,982.16
2018-11-26T04:22:35.545Z,982.19
2018-11-26T04:23:35.692Z,982.16
2018-11-26T04:24:35.840Z,982.15
2018-11-26T04:25:35.995Z,982.20
2018-11-26T04:26:36.135Z,982.19
2018-11-26T04:27:36.283Z,982.22
2018-11-26T04:28:36.429Z,982.24
2018-11-26T04:29:36.578Z,982.25
2018-11-26T04:30:36.725Z,982.24
2018-11-26T04:31:36.877Z,982.19
2018-11-26T04:32:37.018Z,982.20
2018-11-26T04:33:37.166Z,982.21
2018-11-26T04:34:37.312Z,982.26
2018-11-26T04:35:37.462Z,982.27
2018-11-26T04:36:37.608Z,982.17
2018-11-26T04:37:37.754Z,982.24
2018-11-26T04:38:37.901Z,982.22
2018-11-26T04:39:38.049Z,982.22
2018-11-26T04:40:38.197Z,982.24
2018-11-26T04:41:38.345Z,982.22
2018-11-26T04:42:38.492Z,982.24
2018-11-26T04:43:38.635Z,982.17
2018-11-26T04:44:38.783Z,982.25
2018-11-26T04:45:38.929Z,982.21
2018-11-26T04:46:39.075Z,982.18
2018-11-26T04:47:39.234Z,982.22
2018-11-26T04:48:39.373Z,982.19
2018-11-26T04:49:39.517Z,982.16
2018-11-26T04:50:39.665Z,982.20
2018-11-26T04:51:39.811Z,982.14
2018-11-26T04:52:39.961Z,982.13
2018-11-26T04:53:40.106Z,982.07
2018-11-26T04:54:40.250Z,982.09
2018-11-26T04:55:40.395Z,982.08
2018-11-26T04:56:40.543Z,982.11
2018-11-26T04:57:42.640Z,982.10
2018-11-26T04:58:40.837Z,982.13
2018-11-26T04:59:40.984Z,982.12
2018-11-26T05:00:41.133Z,982.13
2018-11-26T05:01:41.278Z,982.18
2018-11-26T05:02:41.430Z,982.16
2018-11-26T05:03:41.572Z,982.20
2018-11-26T05:04:41.720Z,982.13
2018-11-26T05:05:41.867Z,982.20
2018-11-26T05:06:42.013Z,982.17
2018-11-26T05:07:42.164Z,982.15
2018-11-26T05:08:42.307Z,982.15
2018-11-26T05:09:42.457Z,982.12
2018-11-26T05:10:42.599Z,982.11
2018-11-26T05:11:42.752Z,982.09
2018-11-26T05:12:42.895Z,982.10
2018-11-26T05:13:43.041Z,982.10
2018-11-26T05:14:43.228Z,982.07
2018-11-26T05:15:43.335Z,982.10
2018-11-26T05:16:43.480Z,982.09
2018-11-26T05:17:43.630Z,982.12
2018-11-26T05:18:43.777Z,982.12
2018-11-26T05:19:43.920Z,982.10
2018-11-26T05:20:44.069Z,982.13
2018-11-26T05:21:44.214Z,982.09
2018-11-26T05:22:44.358Z,982.12
2018-11-26T05:23:44.507Z,982.11
2018-11-26T05:24:44.655Z,982.12
2018-11-26T05:25:44.803Z,982.08
2018-11-26T05:26:44.948Z,982.07
2018-11-26T05:27:45.094Z,982.08
2018-11-26T05:28:45.242Z,982.08
2018-11-26T05:29:45.389Z,982.09
2018-11-26T05:30:45.536Z,982.09
2018-11-26T05:31:45.681Z,982.11
2018-11-26T05:32:45.831Z,982.09
2018-11-26T05:33:45.975Z,982.14
2018-11-26T05:34:46.123Z,982.13
2018-11-26T05:35:46.270Z,982.12
2018-11-26T05:36:46.415Z,982.13
2018-11-26T05:37:46.561Z,982.11
2018-11-26T05:38:46.709Z,982.15
2018-11-26T05:39:46.855Z,982.15
2018-11-26T05:40:47.002Z,982.14
2018-11-26T05:41:47.147Z,982.12
2018-11-26T05:42:47.296Z,982.14
2018-11-26T05:43:47.444Z,982.15
2018-11-26T05:44:47.592Z,982.15
2018-11-26T05:45:47.737Z,982.15
2018-11-26T05:46:47.887Z,982.17
2018-11-26T05:47:48.028Z,982.16
2018-11-26T05:48:48.175Z,982.17
2018-11-26T05:49:48.325Z,982.15
2018-11-26T05:50:48.465Z,982.14
2018-11-26T05:51:48.615Z,982.13
2018-11-26T05:52:48.761Z,982.16
2018-11-26T05:53:48.908Z,982.16
2018-11-26T05:54:49.055Z,982.18
2018-11-26T05:55:49.203Z,982.23
2018-11-26T05:56:49.350Z,982.20
2018-11-26T05:57:49.497Z,982.18
2018-11-26T05:58:49.642Z,982.20
2018-11-26T05:59:49.787Z,982.18
2018-11-26T06:00:49.934Z,982.28
2018-11-26T06:01:50.081Z,982.26
2018-11-26T06:02:50.228Z,982.25
2018-11-26T06:03:50.374Z,982.29
2018-11-26T06:04:50.524Z,982.25
2018-11-26T06:05:50.668Z,982.27
2018-11-26T06:06:50.813Z,982.22
2018-11-26T06:07:50.962Z,982.21
2018-11-26T06:08:51.109Z,982.22
2018-11-26T06:09:51.259Z,982.22
2018-11-26T06:10:51.406Z,982.24
2018-11-26T06:11:51.550Z,982.24
2018-11-26T06:12:51.702Z,982.16
2018-11-26T06:13:51.887Z,982.17
2018-11-26T06:14:51.993Z,982.16
2018-11-26T06:15:52.138Z,982.16
2018-11-26T06:16:53.771Z,982.18
2018-11-26T06:17:52.425Z,982.18
2018-11-26T06:18:52.576Z,982.19
2018-11-26T06:19:52.721Z,982.16
2018-11-26T06:20:52.867Z,982.18
2018-11-26T06:21:53.036Z,982.14
2018-11-26T06:22:53.162Z,982.16
2018-11-26T06:23:53.308Z,982.20
2018-11-26T06:24:53.455Z,982.17
2018-11-26T06:25:53.603Z,982.17
2018-11-26T06:26:53.749Z,982.25
2018-11-26T06:27:53.896Z,982.18
2018-11-26T06:28:54.042Z,982.15
2018-11-26T06:29:54.187Z,982.18
2018-11-26T06:30:54.336Z,982.19
2018-11-26T06:31:54.486Z,982.20
2018-11-26T06:32:54.628Z,982.19
2018-11-26T06:33:54.775Z,982.22
2018-11-26T06:34:54.924Z,982.20
2018-11-26T06:35:55.068Z,982.21
2018-11-26T06:36:55.213Z,982.21
2018-11-26T06:37:55.364Z,982.21
2018-11-26T06:38:55.508Z,982.25
2018-11-26T06:39:55.655Z,982.27
2018-11-26T06:40:55.802Z,982.28
2018-11-26T06:41:55.947Z,982.26
2018-11-26T06:42:56.098Z,982.21
2018-11-26T06:43:56.242Z,982.27
2018-11-26T06:44:56.391Z,982.28
2018-11-26T06:45:56.536Z,982.29
2018-11-26T06:46:56.681Z,982.29
2018-11-26T06:47:56.828Z,982.29
2018-11-26T06:48:56.973Z,982.31
2018-11-26T06:49:57.125Z,982.30
2018-11-26T06:50:57.267Z,982.30
2018-11-26T06:51:57.415Z,982.30
2018-11-26T06:52:57.562Z,982.30
2018-11-26T06:53:57.709Z,982.32
2018-11-26T06:54:57.858Z,982.34
2018-11-26T06:55:58.004Z,982.35
2018-11-26T06:56:58.150Z,982.34
2018-11-26T06:57:58.296Z,982.35
2018-11-26T06:58:58.442Z,982.39
2018-11-26T06:59:58.588Z,982.35
2018-11-26T07:00:58.735Z,982.38
2018-11-26T07:01:58.882Z,982.34
2018-11-26T07:02:59.032Z,982.39
2018-11-26T07:03:59.176Z,982.36
2018-11-26T07:04:59.322Z,982.41
2018-11-26T07:05:59.468Z,982.40
2018-11-26T07:06:59.614Z,982.40
2018-11-26T07:07:59.762Z,982.44
2018-11-26T07:08:59.910Z,982.42
2018-11-26T07:10:00.079Z,982.46
2018-11-26T07:11:00.200Z,982.45
2018-11-26T07:12:00.380Z,982.48
2018-11-26T07:13:00.527Z,982.51
2018-11-26T07:14:00.676Z,982.49
2018-11-26T07:15:00.820Z,982.51
2018-11-26T07:16:00.968Z,982.50
2018-11-26T07:17:01.119Z,982.52
2018-11-26T07:18:01.261Z,982.49
2018-11-26T07:19:01.411Z,982.50
2018-11-26T07:20:01.556Z,982.53
2018-11-26T07:21:01.711Z,982.56
2018-11-26T07:22:01.849Z,982.54
2018-11-26T07:23:01.997Z,982.54
2018-11-26T07:24:02.141Z,982.61
2018-11-26T07:25:02.290Z,982.61
2018-11-26T07:26:02.435Z,982.59
2018-11-26T07:27:02.582Z,982.58
2018-11-26T07:28:02.729Z,982.62
2018-11-26T07:29:02.877Z,982.58
2018-11-26T07:30:03.024Z,982.58
2018-11-26T07:31:03.170Z,982.59
2018-11-26T07:32:03.318Z,982.64
2018-11-26T07:33:03.463Z,982.62
2018-11-26T07:34:03.608Z,982.62
2018-11-26T07:35:03.760Z,982.64
2018-11-26T07:36:10.974Z,982.66
2018-11-26T07:37:04.050Z,982.62
2018-11-26T07:38:04.197Z,982.65
2018-11-26T07:39:04.342Z,982.64
2018-11-26T07:40:04.491Z,982.63
2018-11-26T07:41:04.637Z,982.61
2018-11-26T07:42:04.784Z,982.60
2018-11-26T07:43:04.932Z,982.66
2018-11-26T07:44:05.079Z,982.65
2018-11-26T07:45:05.227Z,982.67
2018-11-26T07:46:05.374Z,982.67
2018-11-26T07:47:05.522Z,982.71
2018-11-26T07:48:05.668Z,982.68
2018-11-26T07:49:05.812Z,982.67
2018-11-26T07:50:05.962Z,982.68
2018-11-26T07:51:06.115Z,982.70
2018-11-26T07:52:06.257Z,982.70
2018-11-26T07:53:06.404Z,982.74
2018-11-26T07:54:06.549Z,982.74
2018-11-26T07:55:06.701Z,982.73
2018-11-26T07:56:06.843Z,982.71
2018-11-26T07:57:06.991Z,982.74
2018-11-26T07:58:07.139Z,982.74
2018-11-26T07:59:07.285Z,982.72
2018-11-26T08:00:07.441Z,982.72
2018-11-26T08:01:07.581Z,982.68
2018-11-26T08:02:07.725Z,982.70
2018-11-26T08:03:07.884Z,982.72
2018-11-26T08:04:08.021Z,982.72
2018-11-26T08:05:08.166Z,982.72
2018-11-26T08:06:08.837Z,982.70
2018-11-26T08:07:08.459Z,982.74
2018-11-26T08:08:08.605Z,982.71
2018-11-26T08:09:08.752Z,982.76
2018-11-26T08:10:08.901Z,982.82
2018-11-26T08:11:09.041Z,982.76
2018-11-26T08:12:09.185Z,982.79
2018-11-26T08:13:09.332Z,982.81
2018-11-26T08:14:09.487Z,982.75
2018-11-26T08:15:09.627Z,982.78
2018-11-26T08:16:09.777Z,982.78
2018-11-26T08:17:09.921Z,982.82
2018-11-26T08:18:10.067Z,982.77
2018-11-26T08:19:10.214Z,982.83
2018-11-26T08:20:10.362Z,982.84
2018-11-26T08:21:10.516Z,982.84
2018-11-26T08:22:10.655Z,982.87
2018-11-26T08:23:10.804Z,982.88
2018-11-26T08:24:10.950Z,982.83
2018-11-26T08:25:11.096Z,982.89
2018-11-26T08:26:11.244Z,982.87
2018-11-26T08:27:11.389Z,982.89
2018-11-26T08:28:11.541Z,982.92
2018-11-26T08:29:11.685Z,982.92
2018-11-26T08:30:11.831Z,982.91
2018-11-26T08:31:11.978Z,982.94
2018-11-26T08:32:12.121Z,982.93
2018-11-26T08:33:12.267Z,982.96
2018-11-26T08:34:12.864Z,982.91
2018-11-26T08:35:12.564Z,982.95
2018-11-26T08:36:12.709Z,982.98
2018-11-26T08:37:12.857Z,982.98
2018-11-26T08:38:13.005Z,982.98
2018-11-26T08:39:13.151Z,983.02
2018-11-26T08:40:13.298Z,983.03
2018-11-26T08:41:13.447Z,983.02
2018-11-26T08:42:13.592Z,983.01
2018-11-26T08:43:13.740Z,983.00
2018-11-26T08:44:13.887Z,983.03
2018-11-26T08:45:14.033Z,983.01
2018-11-26T08:46:14.206Z,983.01
2018-11-26T08:47:14.357Z,983.08
2018-11-26T08:48:14.472Z,983.06
2018-11-26T08:49:14.622Z,983.12
2018-11-26T08:50:14.768Z,983.13
2018-11-26T08:51:14.917Z,983.08
2018-11-26T08:52:15.062Z,983.13
2018-11-26T08:53:15.207Z,983.13
2018-11-26T08:54:15.357Z,983.13
2018-11-26T08:55:15.503Z,983.12
2018-11-26T08:56:16.004Z,983.10
2018-11-26T08:57:15.795Z,983.11
2018-11-26T08:58:15.942Z,983.12
2018-11-26T08:59:16.093Z,983.14
2018-11-26T09:00:16.238Z,983.14
2018-11-26T09:01:16.385Z,983.15
2018-11-26T09:02:16.532Z,983.14
2018-11-26T09:03:16.680Z,983.13
2018-11-26T09:04:16.825Z,983.19
2018-11-26T09:05:23.758Z,983.19
2018-11-26T09:06:17.118Z,983.20
2018-11-26T09:07:17.268Z,983.20
2018-11-26T09:08:17.416Z,983.25
2018-11-26T09:09:17.560Z,983.25
2018-11-26T09:10:17.705Z,983.24
2018-11-26T09:11:17.853Z,983.28
2018-11-26T09:12:18.002Z,983.26
2018-11-26T09:13:18.148Z,983.25
2018-11-26T09:14:18.297Z,983.27
2018-11-26T09:15:18.442Z,983.32
2018-11-26T09:16:18.589Z,983.26
2018-11-26T09:17:18.736Z,983.28
2018-11-26T09:18:18.882Z,983.26
2018-11-26T09:19:19.027Z,983.30
2018-11-26T09:20:19.175Z,983.28
2018-11-26T09:21:19.321Z,983.33
2018-11-26T09:22:19.469Z,983.36
2018-11-26T09:23:19.614Z,983.33
2018-11-26T09:24:19.761Z,983.36
2018-11-26T09:25:19.915Z,983.33
2018-11-26T09:26:20.061Z,983.37
2018-11-26T09:27:20.207Z,983.43
2018-11-26T09:28:20.361Z,983.42
2018-11-26T09:29:20.507Z,983.45
2018-11-26T09:30:20.640Z,983.43
2018-11-26T09:31:20.788Z,983.42
2018-11-26T09:32:20.932Z,983.42
2018-11-26T09:33:21.078Z,983.45
2018-11-26T09:34:21.225Z,983.44
2018-11-26T09:35:21.376Z,983.45
2018-11-26T09:36:21.518Z,983.47
2018-11-26T09:37:21.665Z,983.49
2018-11-26T09:38:21.819Z,983.49
2018-11-26T09:39:21.957Z,983.47
2018-11-26T09:40:22.102Z,983.47
2018-11-26T09:41:22.248Z,983.50
2018-11-26T09:42:22.398Z,983.50
2018-11-26T09:43:22.544Z,983.52
2018-11-26T09:44:22.687Z,983.52
2018-11-26T09:45:22.833Z,983.49
2018-11-26T09:46:22.979Z,983.48
2018-11-26T09:47:23.131Z,983.44
2018-11-26T09:48:23.275Z,983.43
2018-11-26T09:49:23.421Z,983.43
2018-11-26T09:50:23.568Z,983.45
2018-11-26T09:51:23.713Z,983.44
2018-11-26T09:52:23.862Z,983.49
2018-11-26T09:53:24.010Z,983.43
2018-11-26T09:54:26.012Z,983.47
2018-11-26T09:55:24.308Z,983.46
2018-11-26T09:56:24.450Z,983.52
2018-11-26T09:57:24.597Z,983.48
2018-11-26T09:58:24.745Z,983.47
2018-11-26T09:59:24.891Z,983.44
2018-11-26T10:00:25.042Z,983.46
2018-11-26T10:01:25.192Z,983.49
2018-11-26T10:02:25.334Z,983.42
2018-11-26T10:03:25.483Z,983.46
2018-11-26T10:04:25.628Z,983.46
2018-11-26T10:05:25.777Z,983.50
2018-11-26T10:06:25.922Z,983.50
2018-11-26T10:07:26.069Z,983.50
2018-11-26T10:08:26.219Z,983.55
2018-11-26T10:09:26.361Z,983.55
2018-11-26T10:10:26.509Z,983.57
2018-11-26T10:11:26.659Z,983.58
2018-11-26T10:12:26.801Z,983.53
2018-11-26T10:13:26.949Z,983.51
2018-11-26T10:14:27.344Z,983.52
2018-11-26T10:15:27.254Z,983.54
2018-11-26T10:16:27.392Z,983.51
2018-11-26T10:17:27.537Z,983.53
2018-11-26T10:18:27.687Z,983.51
2018-11-26T10:19:28.584Z,983.55
2018-11-26T10:20:27.976Z,983.55
2018-11-26T10:21:28.124Z,983.51
2018-11-26T10:22:28.270Z,983.56
2018-11-26T10:23:28.421Z,983.53
2018-11-26T10:24:28.563Z,983.47
2018-11-26T10:25:28.711Z,983.53
2018-11-26T10:26:28.857Z,983.50
2018-11-26T10:27:29.005Z,983.48
2018-11-26T10:28:29.152Z,983.47
2018-11-26T10:29:29.297Z,983.41
2018-11-26T10:30:29.444Z,983.44
2018-11-26T10:31:29.588Z,983.46
2018-11-26T10:32:29.737Z,983.47
2018-11-26T10:33:29.885Z,983.43
2018-11-26T10:34:30.036Z,983.46
2018-11-26T10:35:30.181Z,983.47
2018-11-26T10:36:30.327Z,983.48
2018-11-26T10:37:30.502Z,983.45
2018-11-26T10:38:30.649Z,983.44
2018-11-26T10:39:30.798Z,983.49
2018-11-26T10:40:30.940Z,983.49
2018-11-26T10:41:31.085Z,983.48
2018-11-26T10:42:31.233Z,983.49
2018-11-26T10:43:31.377Z,983.52
2018-11-26T10:44:31.526Z,983.48
2018-11-26T10:45:31.672Z,983.47
2018-11-26T10:46:31.820Z,983.47
2018-11-26T10:47:31.969Z,983.45
2018-11-26T10:48:32.134Z,983.46
2018-11-26T10:49:32.257Z,983.42
2018-11-26T10:50:32.430Z,983.42
2018-11-26T10:51:32.553Z,983.40
2018-11-26T10:52:32.699Z,983.39
2018-11-26T10:53:32.847Z,983.42
2018-11-26T10:54:32.994Z,983.40
2018-11-26T10:55:33.138Z,983.36
2018-11-26T10:56:33.287Z,983.37
2018-11-26T10:57:33.435Z,983.42
2018-11-26T10:58:33.585Z,983.36
2018-11-26T10:59:33.726Z,983.34
2018-11-26T11:00:33.875Z,983.37
2018-11-26T11:01:34.020Z,983.38
2018-11-26T11:02:34.363Z,983.35
2018-11-26T11:03:34.318Z,983.34
2018-11-26T11:04:34.465Z,983.33
2018-11-26T11:05:34.611Z,983.31
2018-11-26T11:06:34.757Z,983.33
2018-11-26T11:07:34.902Z,983.33
2018-11-26T11:08:35.047Z,983.31
2018-11-26T11:09:35.204Z,983.33
2018-11-26T11:10:35.339Z,983.33
2018-11-26T11:11:35.486Z,983.36
2018-11-26T11:12:35.631Z,983.39
2018-11-26T11:13:35.779Z,983.40
2018-11-26T11:14:35.926Z,983.42
2018-11-26T11:15:36.073Z,983.39
2018-11-26T11:16:36.218Z,983.41
2018-11-26T11:17:36.363Z,983.43
2018-11-26T11:18:36.513Z,983.41
2018-11-26T11:19:36.658Z,983.43
2018-11-26T11:20:36.805Z,983.46
2018-11-26T11:21:36.950Z,983.44
2018-11-26T11:22:37.097Z,983.42
2018-11-26T11:23:37.245Z,983.41
2018-11-26T11:24:37.391Z,983.45
2018-11-26T11:25:37.538Z,983.46
2018-11-26T11:26:37.689Z,983.46
2018-11-26T11:27:37.833Z,983.46
2018-11-26T11:28:37.979Z,983.46
2018-11-26T11:29:38.127Z,983.50
2018-11-26T11:30:38.274Z,983.54
2018-11-26T11:31:38.421Z,983.51
2018-11-26T11:32:38.571Z,983.48
2018-11-26T11:33:38.716Z,983.53
2018-11-26T11:34:38.862Z,983.50
2018-11-26T11:35:39.011Z,983.49
2018-11-26T11:36:39.158Z,983.50
2018-11-26T11:37:39.303Z,983.44
2018-11-26T11:38:39.455Z,983.45
2018-11-26T11:39:39.597Z,983.45
2018-11-26T11:40:39.746Z,983.45
2018-11-26T11:41:39.893Z,983.39
2018-11-26T11:42:40.040Z,983.42
2018-11-26T11:43:40.186Z,983.43
2018-11-26T11:44:40.331Z,983.44
2018-11-26T11:45:40.479Z,983.38
2018-11-26T11:46:40.622Z,983.41
2018-11-26T11:47:40.767Z,983.40
2018-11-26T11:48:40.916Z,983.42
2018-11-26T11:49:41.063Z,983.45
2018-11-26T11:50:41.213Z,983.43
2018-11-26T11:51:41.357Z,983.42
2018-11-26T11:52:41.505Z,983.42
2018-11-26T11:53:41.652Z,983.47
2018-11-26T11:54:41.799Z,983.44
2018-11-26T11:55:41.947Z,983.46
2018-11-26T11:56:42.091Z,983.45
2018-11-26T11:57:42.239Z,983.48
2018-11-26T11:58:42.385Z,983.45
2018-11-26T11:59:42.532Z,983.46
2018-11-26T12:00:42.678Z,983.48
2018-11-26T12:01:42.824Z,983.49
2018-11-26T12:02:42.972Z,983.47
2018-11-26T12:03:43.121Z,983.45
2018-11-26T12:04:43.267Z,983.49
2018-11-26T12:05:43.417Z,983.48
2018-11-26T12:06:43.564Z,983.45
2018-11-26T12:07:43.706Z,983.49
2018-11-26T12:08:43.852Z,983.47
2018-11-26T12:09:43.999Z,983.44
2018-11-26T12:10:44.148Z,983.43
2018-11-26T12:11:44.294Z,983.47
2018-11-26T12:12:44.439Z,983.45
2018-11-26T12:13:44.584Z,983.42
2018-11-26T12:14:44.732Z,983.43
2018-11-26T12:15:44.879Z,983.41
2018-11-26T12:16:45.024Z,983.45
2018-11-26T12:17:45.176Z,983.46
2018-11-26T12:18:45.317Z,983.46
2018-11-26T12:19:45.467Z,983.41
2018-11-26T12:20:45.609Z,983.46
2018-11-26T12:21:45.758Z,983.45
2018-11-26T12:22:45.905Z,983.44
2018-11-26T12:23:46.053Z,983.44
2018-11-26T12:24:46.198Z,983.42
2018-11-26T12:25:46.377Z,983.45
2018-11-26T12:26:46.491Z,983.43
2018-11-26T12:27:46.639Z,983.46
2018-11-26T12:28:46.786Z,983.46
2018-11-26T12:29:46.932Z,983.46
2018-11-26T12:30:47.078Z,983.46